Time;durP1;ratioP1;P1;durP2;ratioP2;P2;SDS_P1;SDS_P2;PMS_P1;PMS_P2;Temp;Humidity;BMP_temperature;BMP_pressure;BME280_temperature;BME280_humidity;BME280_pressure;Samples;Min_cycle;Max_cycle;Signal;HPM_P1;HPM_P2
2022/05/24 00:02:23;;;;;;;6.40;2.77;;;18.60;1.00;;;;;;5057519;28;20443;-74
2022/05/24 00:04:51;;;;;;;6.37;3.13;;;18.60;1.00;;;;;;5058531;28;20483;-73
2022/05/24 00:07:17;;;;;;;7.20;3.00;;;18.50;1.00;;;;;;5055418;28;20452;-74
2022/05/24 00:09:44;;;;;;;7.27;3.30;;;18.50;1.00;;;;;;5057353;28;20470;-76
2022/05/24 00:12:11;;;;;;;7.00;3.30;;;18.50;1.00;;;;;;5054275;28;20488;-73
2022/05/24 00:17:23;;;;;;;8.00;3.27;;;18.40;1.00;;;;;;5052416;28;21010;-75
2022/05/24 00:19:51;;;;;;;7.03;3.67;;;18.40;1.00;;;;;;5057487;28;20455;-74
2022/05/24 00:22:17;;;;;;;7.90;3.10;;;18.40;1.00;;;;;;5058950;28;20638;-74
2022/05/24 00:24:44;;;;;;;6.53;2.80;;;18.40;1.00;;;;;;5059313;28;20476;-73
2022/05/24 00:27:11;;;;;;;7.37;3.47;;;18.40;1.00;;;;;;5055232;28;20476;-73
2022/05/24 00:29:37;;;;;;;7.60;3.03;;;18.30;1.00;;;;;;5055099;28;20613;-74
2022/05/24 00:32:05;;;;;;;6.40;2.50;;;18.30;1.00;;;;;;5058472;28;20488;-74
2022/05/24 00:34:34;;;;;;;6.10;3.07;;;18.40;1.00;;;;;;5054633;28;20478;-75
2022/05/24 00:37:02;;;;;;;7.23;3.47;;;18.30;1.00;;;;;;5058838;28;20456;-75
2022/05/24 00:39:28;;;;;;;7.77;3.60;;;18.30;1.00;;;;;;5055251;28;20685;-73
2022/05/24 00:41:59;;;;;;;6.83;3.27;;;18.30;1.00;;;;;;5058165;28;20805;-74
2022/05/24 00:44:31;;;;;;;7.00;3.60;;;18.30;1.00;;;;;;5056773;28;21057;-75
2022/05/24 00:47:00;;;;;;;6.33;2.90;;;18.30;1.00;;;;;;5057255;28;20459;-73
2022/05/24 00:49:31;;;;;;;7.27;3.33;;;18.30;1.00;;;;;;5056789;28;20459;-74
2022/05/24 00:52:05;;;;;;;7.63;3.80;;;18.40;1.00;;;;;;5059960;28;20492;-74
2022/05/24 00:54:32;;;;;;;7.27;3.73;;;18.40;1.00;;;;;;5062158;28;20480;-76
2022/05/24 00:57:04;;;;;;;7.80;3.57;;;18.30;1.00;;;;;;5062277;28;20537;-73
2022/05/24 00:59:37;;;;;;;6.93;3.27;;;18.30;1.00;;;;;;5060319;28;20479;-74
2022/05/24 01:02:05;;;;;;;7.90;3.80;;;18.30;1.00;;;;;;5059219;28;20554;-77
2022/05/24 01:04:32;;;;;;;7.63;3.83;;;18.30;1.00;;;;;;5054310;28;20639;-77
2022/05/24 01:06:58;;;;;;;6.90;3.90;;;18.30;1.00;;;;;;5058696;28;20505;-73
2022/05/24 01:09:31;;;;;;;6.30;2.90;;;18.30;1.00;;;;;;5061017;28;20498;-75
2022/05/24 01:12:03;;;;;;;7.70;3.27;;;18.30;1.00;;;;;;5060635;28;20529;-76
2022/05/24 01:14:31;;;;;;;7.77;3.83;;;18.30;1.00;;;;;;5061685;28;20925;-75
2022/05/24 01:16:59;;;;;;;7.87;3.47;;;18.40;1.00;;;;;;5061754;28;20450;-77
2022/05/24 01:19:34;;;;;;;7.37;3.27;;;18.40;1.00;;;;;;5061444;28;20616;-76
2022/05/24 01:22:20;;;;;;;7.83;3.70;;;18.30;1.00;;;;;;5060158;28;20479;-74
2022/05/24 01:24:56;;;;;;;7.23;3.57;;;18.40;1.00;;;;;;5064354;28;20463;-74
2022/05/24 01:27:25;;;;;;;7.57;4.33;;;18.30;1.00;;;;;;5061984;28;20471;-75
2022/05/24 01:29:51;;;;;;;7.00;3.30;;;18.30;1.00;;;;;;5063605;28;20507;-73
2022/05/24 01:37:46;;;;;;;7.80;3.37;;;18.30;1.00;;;;;;5060810;28;20493;-73
2022/05/24 01:40:13;;;;;;;6.57;3.53;;;18.30;1.00;;;;;;5059748;28;20509;-73
2022/05/24 01:42:41;;;;;;;8.50;4.00;;;18.30;1.00;;;;;;5058623;28;20639;-73
2022/05/24 01:45:13;;;;;;;7.13;3.50;;;18.30;1.00;;;;;;5057972;28;20475;-74
2022/05/24 01:47:42;;;;;;;6.93;3.97;;;18.30;1.00;;;;;;5060608;28;20502;-74
2022/05/24 01:50:13;;;;;;;8.53;3.90;;;18.30;1.00;;;;;;5060852;28;21050;-75
2022/05/24 01:52:46;;;;;;;9.83;3.97;;;18.30;1.00;;;;;;5060430;28;20591;-73
2022/05/24 01:55:17;;;;;;;8.67;3.57;;;18.30;1.00;;;;;;5060602;28;20553;-73
2022/05/24 01:57:49;;;;;;;7.07;3.77;;;18.30;1.00;;;;;;5058082;28;20424;-74
2022/05/24 02:00:17;;;;;;;7.40;3.77;;;18.30;1.00;;;;;;5063786;28;20503;-75
2022/05/24 02:02:44;;;;;;;8.10;3.33;;;18.30;1.00;;;;;;5059312;28;20953;-76
2022/05/24 02:05:12;;;;;;;8.93;3.60;;;18.30;1.00;;;;;;5061439;28;20499;-74
2022/05/24 02:07:40;;;;;;;8.47;3.80;;;18.30;1.00;;;;;;5060326;28;20468;-73
2022/05/24 02:10:08;;;;;;;7.00;3.70;;;18.20;1.00;;;;;;5061137;28;21003;-76
2022/05/24 02:12:39;;;;;;;8.20;3.87;;;18.10;1.00;;;;;;5061138;28;20611;-75
2022/05/24 02:15:10;;;;;;;7.17;4.07;;;18.10;1.00;;;;;;5059135;28;20494;-74
2022/05/24 02:17:41;;;;;;;6.50;3.40;;;18.10;1.00;;;;;;5057754;28;20478;-74
2022/05/24 02:20:11;;;;;;;8.97;3.80;;;18.10;1.00;;;;;;5062631;28;22431;-74
2022/05/24 02:22:38;;;;;;;8.13;3.50;;;17.90;1.00;;;;;;5061475;28;20472;-73
2022/05/24 02:25:10;;;;;;;6.83;3.87;;;17.80;1.00;;;;;;5062277;28;20518;-74
2022/05/24 02:27:40;;;;;;;7.00;3.53;;;17.70;1.00;;;;;;5061858;28;20971;-74
2022/05/24 02:30:10;;;;;;;8.40;4.40;;;17.70;1.00;;;;;;5062979;28;20464;-73
2022/05/24 02:32:36;;;;;;;7.63;4.83;;;17.60;1.00;;;;;;5058240;28;20495;-75
2022/05/24 02:35:03;;;;;;;8.00;4.30;;;17.40;1.00;;;;;;5061687;28;20554;-74
2022/05/24 02:37:30;;;;;;;9.20;4.00;;;17.40;1.00;;;;;;5061682;28;20443;-75
2022/05/24 02:42:40;;;;;;;10.40;4.47;;;17.30;1.00;;;;;;5056664;28;21303;-72
2022/05/24 02:45:09;;;;;;;6.80;4.03;;;17.40;1.00;;;;;;5061967;28;20688;-73
2022/05/24 02:47:36;;;;;;;7.20;4.07;;;17.30;1.00;;;;;;5060521;28;20464;-74
2022/05/24 02:50:05;;;;;;;7.23;4.40;;;17.30;1.00;;;;;;5059892;28;21423;-74
2022/05/24 02:52:33;;;;;;;10.27;4.27;;;17.30;1.00;;;;;;5062685;28;20452;-75
2022/05/24 02:54:59;;;;;;;7.43;4.30;;;17.40;1.00;;;;;;5045003;28;20551;-74
2022/05/24 02:57:26;;;;;;;7.93;4.50;;;17.40;1.00;;;;;;5052278;28;20484;-78
2022/05/24 02:59:52;;;;;;;8.10;4.63;;;17.50;1.00;;;;;;5062218;28;20630;-76
2022/05/24 03:02:20;;;;;;;9.90;5.67;;;17.60;1.00;;;;;;5059339;28;21024;-75
2022/05/24 03:04:47;;;;;;;8.17;4.47;;;17.60;1.00;;;;;;5056240;28;20506;-72
2022/05/24 03:09:58;;;;;;;8.87;5.00;;;17.80;1.00;;;;;;5059505;28;20576;-73
2022/05/24 03:15:10;;;;;;;6.70;4.70;;;17.80;1.00;;;;;;5059476;28;20614;-74
2022/05/24 03:17:38;;;;;;;7.50;4.57;;;17.60;1.00;;;;;;5054695;28;20518;-73
2022/05/24 03:20:06;;;;;;;7.90;4.90;;;17.50;1.00;;;;;;5057894;28;20432;-73
2022/05/24 03:22:33;;;;;;;8.07;4.40;;;17.40;1.00;;;;;;5059350;28;20506;-76
2022/05/24 03:25:00;;;;;;;8.50;4.80;;;17.20;1.00;;;;;;5057235;28;20575;-74
2022/05/24 03:27:26;;;;;;;9.13;5.30;;;17.10;1.00;;;;;;5055772;28;20463;-74
2022/05/24 03:29:53;;;;;;;9.63;4.40;;;17.00;1.00;;;;;;5057484;28;21038;-73
2022/05/24 03:32:20;;;;;;;9.43;5.50;;;17.00;1.00;;;;;;5058744;28;20474;-75
2022/05/24 03:34:49;;;;;;;8.40;5.07;;;17.00;1.00;;;;;;5056727;28;20926;-76
2022/05/24 03:37:16;;;;;;;7.70;4.80;;;17.00;1.00;;;;;;5056443;28;20881;-76
2022/05/24 03:39:42;;;;;;;9.27;5.10;;;17.10;1.00;;;;;;5055368;28;20484;-72
2022/05/24 03:42:10;;;;;;;8.57;5.17;;;17.10;1.00;;;;;;5057680;28;20505;-74
2022/05/24 03:44:36;;;;;;;7.10;4.60;;;17.20;1.00;;;;;;5058544;28;20460;-75
2022/05/24 03:47:04;;;;;;;10.30;4.67;;;17.20;1.00;;;;;;5058917;28;20535;-73
2022/05/24 03:49:31;;;;;;;10.00;4.60;;;17.20;1.00;;;;;;5057969;28;21000;-77
2022/05/24 03:51:59;;;;;;;8.70;5.47;;;17.30;1.00;;;;;;5062421;28;20487;-72
2022/05/24 03:54:25;;;;;;;7.80;5.30;;;17.30;1.00;;;;;;5057653;28;20468;-76
2022/05/24 03:59:36;;;;;;;7.67;4.90;;;17.40;1.00;;;;;;5056659;28;20464;-74
2022/05/24 04:02:04;;;;;;;8.77;5.20;;;17.50;1.00;;;;;;5055929;28;20499;-76
2022/05/24 04:04:31;;;;;;;7.40;5.03;;;17.60;1.00;;;;;;5051119;28;20476;-73
2022/05/24 04:06:59;;;;;;;7.67;5.20;;;17.60;1.00;;;;;;5057181;28;20509;-74
2022/05/24 04:09:26;;;;;;;8.60;5.60;;;17.60;1.00;;;;;;5057040;28;20508;-74
2022/05/24 04:11:54;;;;;;;7.93;5.37;;;17.70;1.00;;;;;;5060907;28;20459;-75
2022/05/24 04:14:21;;;;;;;8.47;5.20;;;17.70;1.00;;;;;;5061561;28;20502;-73
2022/05/24 04:16:47;;;;;;;8.90;6.10;;;17.60;1.00;;;;;;5055959;28;20491;-74
2022/05/24 04:19:14;;;;;;;8.53;6.63;;;17.40;1.00;;;;;;5055151;28;20547;-73
2022/05/24 04:21:40;;;;;;;10.87;6.53;;;17.10;1.00;;;;;;5059882;28;20566;-73
2022/05/24 04:24:09;;;;;;;10.10;8.00;;;16.80;1.00;;;;;;5060223;28;20511;-75
2022/05/24 04:26:36;;;;;;;9.83;7.30;;;16.50;1.00;;;;;;5060372;28;21019;-74
2022/05/24 04:29:02;;;;;;;11.40;7.90;;;16.30;1.00;;;;;;5066991;28;21263;-73
2022/05/24 04:31:29;;;;;;;9.80;8.43;;;16.20;1.00;;;;;;5061738;28;21090;-74
2022/05/24 04:33:56;;;;;;;16.67;9.13;;;16.10;1.00;;;;;;5063692;28;20502;-75
2022/05/24 04:36:23;;;;;;;9.43;8.07;;;16.00;1.00;;;;;;5067868;28;20459;-77
2022/05/24 04:38:51;;;;;;;10.00;8.40;;;15.90;1.00;;;;;;5059802;28;22679;-75
2022/05/24 04:44:03;;;;;;;11.83;9.20;;;15.80;1.00;;;;;;5061415;28;20590;-77
2022/05/24 04:47:06;;;;;;;12.73;9.60;;;15.80;1.00;;;;;;5061622;28;20514;-76
2022/05/24 04:49:17;;;;;;;11.50;10.43;;;15.80;1.00;;;;;;5060339;28;20857;-75
2022/05/24 04:51:43;;;;;;;11.97;10.40;;;15.80;1.00;;;;;;5064846;28;20881;-76
2022/05/24 04:54:10;;;;;;;10.40;9.30;;;15.80;1.00;;;;;;5062322;28;20483;-76
2022/05/24 04:56:38;;;;;;;10.80;9.80;;;15.80;1.00;;;;;;5062234;28;20497;-75
2022/05/24 04:59:05;;;;;;;12.50;10.93;;;15.80;1.00;;;;;;5065434;28;20547;-76
2022/05/24 05:01:31;;;;;;;11.83;10.73;;;15.80;1.00;;;;;;5062916;28;20462;-78
2022/05/24 05:03:59;;;;;;;12.10;11.00;;;15.80;1.00;;;;;;5062256;28;20466;-77
2022/05/24 05:06:25;;;;;;;14.67;11.80;;;15.80;1.00;;;;;;5064197;28;20471;-77
2022/05/24 05:08:53;;;;;;;12.73;11.53;;;15.80;1.00;;;;;;5064731;28;20434;-76
2022/05/24 05:11:20;;;;;;;12.80;11.73;;;15.80;1.00;;;;;;5041994;28;20966;-78
2022/05/24 05:13:50;;;;;;;13.47;12.17;;;15.80;1.00;;;;;;5060953;28;20483;-77
2022/05/24 05:16:17;;;;;;;17.13;15.33;;;15.80;1.00;;;;;;5063320;28;20483;-79
2022/05/24 05:18:44;;;;;;;16.10;14.40;;;15.90;1.00;;;;;;5060602;28;20541;-76
2022/05/24 05:21:11;;;;;;;14.73;13.30;;;16.00;1.00;;;;;;5061316;28;20503;-76
2022/05/24 05:23:38;;;;;;;15.07;13.73;;;16.20;1.00;;;;;;5064470;28;20973;-76
2022/05/24 05:26:05;;;;;;;16.13;14.47;;;16.20;1.00;;;;;;5064068;28;20997;-77
2022/05/24 05:28:31;;;;;;;14.50;13.20;;;16.30;1.00;;;;;;5066915;28;20913;-77
2022/05/24 05:31:22;;;;;;;13.87;12.57;;;16.30;1.00;;;;;;5062796;28;20599;-78
2022/05/24 05:33:50;;;;;;;14.77;13.37;;;16.40;1.00;;;;;;5067242;28;20503;-77
2022/05/24 05:36:17;;;;;;;15.00;13.63;;;16.40;1.00;;;;;;5060854;28;20935;-78
2022/05/24 05:38:46;;;;;;;12.90;11.60;;;16.40;1.00;;;;;;5063239;28;20546;-76
2022/05/24 05:41:14;;;;;;;13.63;12.40;;;16.30;1.00;;;;;;5062859;28;20455;-75
2022/05/24 05:43:41;;;;;;;14.10;12.70;;;16.30;1.00;;;;;;5065076;28;20654;-76
2022/05/24 05:46:10;;;;;;;12.23;11.03;;;16.30;1.00;;;;;;5066523;28;20459;-74
2022/05/24 05:48:38;;;;;;;13.07;11.77;;;16.30;1.00;;;;;;5070119;28;20803;-73
2022/05/24 05:51:06;;;;;;;13.83;12.63;;;16.30;1.00;;;;;;5059165;28;20874;-76
2022/05/24 05:53:37;;;;;;;12.50;11.20;;;16.20;1.00;;;;;;5066466;28;20544;-73
2022/05/24 05:56:05;;;;;;;19.97;18.00;;;16.20;1.00;;;;;;5062596;28;20951;-74
2022/05/24 05:58:34;;;;;;;15.40;14.10;;;16.20;1.00;;;;;;5061027;28;20456;-75
2022/05/24 06:01:02;;;;;;;14.87;13.30;;;16.20;1.00;;;;;;5065977;28;20997;-73
2022/05/24 06:03:30;;;;;;;13.23;12.03;;;16.20;1.00;;;;;;5064549;28;20463;-75
2022/05/24 06:06:00;;;;;;;13.60;12.30;;;16.20;1.00;;;;;;5068911;28;20529;-74
2022/05/24 06:08:27;;;;;;;13.07;11.90;;;16.30;1.00;;;;;;5067130;28;20451;-74
2022/05/24 06:10:54;;;;;;;12.57;11.47;;;16.30;1.00;;;;;;5067762;28;20463;-73
2022/05/24 06:13:22;;;;;;;13.00;11.90;;;16.30;1.00;;;;;;5060710;28;20532;-73
2022/05/24 06:15:51;;;;;;;14.40;12.90;;;16.30;1.00;;;;;;5068806;28;20884;-74
2022/05/24 06:18:18;;;;;;;12.07;10.93;;;16.30;1.00;;;;;;5062952;28;21053;-72
2022/05/24 06:20:46;;;;;;;14.60;13.30;;;16.30;1.00;;;;;;5058253;28;20513;-75
2022/05/24 06:23:12;;;;;;;14.47;12.97;;;16.40;1.00;;;;;;5065239;28;20832;-75
2022/05/24 06:25:42;;;;;;;13.37;12.27;;;16.60;1.00;;;;;;5061889;28;20638;-77
2022/05/24 06:28:13;;;;;;;11.53;10.63;;;16.60;1.00;;;;;;5055438;28;20500;-76
2022/05/24 06:30:40;;;;;;;11.33;10.43;;;16.70;1.00;;;;;;5058296;28;20526;-76
2022/05/24 06:33:07;;;;;;;12.00;11.00;;;16.80;1.00;;;;;;5059244;28;20564;-77
2022/05/24 06:35:35;;;;;;;11.90;10.70;;;16.90;1.00;;;;;;5055554;28;20447;-76
2022/05/24 06:38:03;;;;;;;11.20;10.40;;;16.90;1.00;;;;;;5050298;28;20491;-75
2022/05/24 06:40:30;;;;;;;10.20;9.20;;;17.00;1.00;;;;;;5058832;28;21453;-76
2022/05/24 06:42:57;;;;;;;11.03;9.00;;;17.10;1.00;;;;;;5061486;28;20471;-77
2022/05/24 06:45:24;;;;;;;9.30;8.37;;;17.30;1.00;;;;;;5045909;28;20490;-76
2022/05/24 06:47:51;;;;;;;9.47;8.57;;;17.40;1.00;;;;;;5056240;28;20491;-75
2022/05/24 06:50:17;;;;;;;9.37;8.63;;;17.50;1.00;;;;;;5055341;28;20463;-76
2022/05/24 06:52:45;;;;;;;9.80;9.00;;;17.60;1.00;;;;;;5059316;28;20525;-78
2022/05/24 06:55:13;;;;;;;8.90;8.20;;;17.70;1.00;;;;;;5066139;28;20452;-75
2022/05/24 06:57:40;;;;;;;8.70;8.00;;;17.70;1.00;;;;;;5061143;28;20873;-76
2022/05/24 07:03:00;;;;;;;8.73;8.00;;;18.00;1.00;;;;;;5057920;28;20463;-77
2022/05/24 07:05:27;;;;;;;8.60;7.90;;;18.10;1.00;;;;;;5056319;28;20511;-76
2022/05/24 07:07:53;;;;;;;9.33;8.43;;;18.40;1.00;;;;;;5059419;28;20911;-76
2022/05/24 07:10:22;;;;;;;8.33;7.50;;;18.50;1.00;;;;;;5061858;28;20471;-77
2022/05/24 07:12:48;;;;;;;6.77;6.17;;;18.50;1.00;;;;;;5060041;28;20479;-77
2022/05/24 07:15:16;;;;;;;7.60;6.90;;;18.50;1.00;;;;;;5061262;28;20521;-77
2022/05/24 07:17:42;;;;;;;7.50;6.70;;;18.70;1.00;;;;;;5060175;28;20478;-77
2022/05/24 07:20:10;;;;;;;7.93;6.63;;;18.90;1.00;;;;;;5044176;28;21091;-75
2022/05/24 07:22:37;;;;;;;6.90;6.30;;;19.00;1.00;;;;;;5057881;28;20529;-79
2022/05/24 07:25:06;;;;;;;6.73;6.10;;;19.20;1.00;;;;;;5057118;28;20481;-77
2022/05/24 07:27:35;;;;;;;6.50;5.90;;;19.20;1.00;;;;;;5057553;28;20510;-76
2022/05/24 07:30:04;;;;;;;7.80;6.30;;;19.20;1.00;;;;;;5054370;28;20492;-78
2022/05/24 07:32:32;;;;;;;6.73;6.13;;;19.20;1.00;;;;;;5058229;28;20848;-75
2022/05/24 07:35:00;;;;;;;6.00;5.47;;;19.40;1.00;;;;;;5060792;28;20518;-78
2022/05/24 07:37:27;;;;;;;7.53;6.57;;;19.60;1.00;;;;;;5064958;28;20990;-76
2022/05/24 07:45:48;;;;;;;6.90;6.20;;;19.80;1.00;;;;;;5061281;28;20530;-76
2022/05/24 07:48:11;;;;;;;5.83;5.40;;;20.10;1.00;;;;;;5059612;28;20546;-75
2022/05/24 07:50:39;;;;;;;5.33;4.83;;;19.90;1.00;;;;;;5060094;28;20506;-77
2022/05/24 07:53:06;;;;;;;6.00;5.50;;;19.90;1.00;;;;;;5057397;28;20479;-75
2022/05/24 07:55:33;;;;;;;6.33;5.67;;;19.80;1.00;;;;;;5042729;28;20519;-76
2022/05/24 07:58:01;;;;;;;6.50;5.90;;;19.80;1.00;;;;;;5059680;28;20440;-76
2022/05/24 08:00:27;;;;;;;5.10;4.60;;;19.80;1.00;;;;;;5058941;28;20241;-77
2022/05/24 08:02:54;;;;;;;4.90;4.53;;;19.80;1.00;;;;;;5059969;28;20496;-75
2022/05/24 08:05:23;;;;;;;5.37;4.97;;;19.80;1.00;;;;;;5061073;28;20483;-76
2022/05/24 08:07:51;;;;;;;5.00;4.60;;;19.80;1.00;;;;;;5060475;28;20556;-77
2022/05/24 08:10:18;;;;;;;5.10;4.70;;;19.80;1.00;;;;;;5057842;28;21007;-74
2022/05/24 08:12:45;;;;;;;4.83;4.33;;;20.00;1.00;;;;;;5064248;28;21195;-74
2022/05/24 08:15:14;;;;;;;5.10;4.60;;;20.20;1.00;;;;;;5063414;28;20544;-75
2022/05/24 08:17:41;;;;;;;5.53;4.60;;;20.10;1.00;;;;;;5062756;28;21084;-75
2022/05/24 08:20:09;;;;;;;4.33;3.93;;;20.30;1.00;;;;;;5066497;28;20475;-76
2022/05/24 08:22:37;;;;;;;5.83;4.40;;;20.50;1.00;;;;;;5067354;28;20471;-76
2022/05/24 08:25:04;;;;;;;5.07;4.53;;;20.70;1.00;;;;;;5064260;28;20459;-76
2022/05/24 08:27:31;;;;;;;4.67;4.33;;;20.70;1.00;;;;;;5062818;28;20942;-76
2022/05/24 08:29:59;;;;;;;4.60;4.20;;;20.50;1.00;;;;;;5064964;28;20551;-75
2022/05/24 08:32:27;;;;;;;4.70;4.20;;;20.30;1.00;;;;;;5065606;28;20499;-76
2022/05/24 08:34:54;;;;;;;4.30;4.00;;;20.00;1.00;;;;;;5067337;28;20468;-75
2022/05/24 08:37:22;;;;;;;5.00;4.60;;;19.80;1.00;;;;;;5064680;28;20455;-76
2022/05/24 08:39:48;;;;;;;7.13;4.20;;;19.60;1.00;;;;;;5065141;28;20562;-76
2022/05/24 08:42:24;;;;;;;5.37;4.87;;;19.40;1.00;;;;;;5064743;28;20824;-76
2022/05/24 08:50:38;;;;;;;5.20;4.43;;;19.20;1.00;;;;;;5058480;28;20460;-75
2022/05/24 08:53:08;;;;;;;5.53;4.23;;;19.10;1.00;;;;;;5063731;28;20517;-75
2022/05/24 08:55:38;;;;;;;5.87;5.30;;;19.00;1.00;;;;;;5067381;28;20491;-78
2022/05/24 08:58:10;;;;;;;4.50;4.10;;;19.10;1.00;;;;;;5062725;28;20489;-78
2022/05/24 09:00:39;;;;;;;4.90;4.50;;;19.20;1.00;;;;;;5065886;28;20455;-78
2022/05/24 09:03:09;;;;;;;4.77;4.30;;;19.30;1.00;;;;;;5061255;28;20903;-78
2022/05/24 09:05:39;;;;;;;4.30;3.90;;;19.30;1.00;;;;;;5060066;28;20502;-78
2022/05/24 09:08:21;;;;;;;5.50;4.40;;;19.40;1.00;;;;;;5046520;28;20824;-76
2022/05/24 09:10:51;;;;;;;4.30;4.00;;;19.50;1.00;;;;;;5065888;28;20464;-76
2022/05/24 09:13:36;;;;;;;4.10;3.80;;;19.60;1.00;;;;;;5060148;28;20524;-77
2022/05/24 09:16:09;;;;;;;4.17;3.87;;;19.90;1.00;;;;;;5065732;28;20493;-77
2022/05/24 09:18:44;;;;;;;4.03;3.70;;;20.30;1.00;;;;;;5065640;28;20510;-78
2022/05/24 09:21:20;;;;;;;3.20;3.00;;;20.80;1.00;;;;;;5057585;28;20487;-78
2022/05/24 09:23:51;;;;;;;3.00;2.80;;;21.20;1.00;;;;;;5064516;28;20483;-77
2022/05/24 09:26:22;;;;;;;6.10;3.27;;;21.50;1.00;;;;;;5064390;28;20487;-78
2022/05/24 09:28:51;;;;;;;3.13;2.93;;;21.90;1.00;;;;;;5065430;28;21223;-77
2022/05/24 09:31:24;;;;;;;3.23;2.93;;;22.50;1.00;;;;;;5063617;28;20626;-77
2022/05/24 09:33:57;;;;;;;3.30;3.10;;;23.00;1.00;;;;;;5062702;28;20468;-77
2022/05/24 09:36:33;;;;;;;3.10;2.80;;;23.40;1.00;;;;;;5061220;28;20463;-78
2022/05/24 09:39:03;;;;;;;3.63;2.80;;;23.80;1.00;;;;;;5066522;28;20467;-78
2022/05/24 09:41:29;;;;;;;2.90;2.70;;;24.80;1.00;;;;;;5290783;22;21990;-76
2022/05/24 09:44:22;;;;;;;2.50;2.30;;;25.50;1.00;;;;;;5080517;28;20443;-77
2022/05/24 09:46:56;;;;;;;2.10;1.90;;;26.60;1.00;;;;;;5094978;28;20415;-80
2022/05/24 09:49:42;;;;;;;4.80;2.10;;;27.40;1.00;;;;;;5094399;28;20446;-81
2022/05/24 09:55:52;;;;;;;2.20;1.60;;;28.00;1.00;;;;;;5097645;28;20438;-79
2022/05/24 09:58:25;;;;;;;1.67;1.20;;;28.70;1.00;;;;;;5094578;28;20514;-79
2022/05/24 10:00:58;;;;;;;2.57;1.47;;;28.80;1.00;;;;;;5094218;28;20453;-79
2022/05/24 10:06:33;;;;;;;2.33;1.70;;;30.30;1.00;;;;;;5098238;28;20467;-79
2022/05/24 10:09:04;;;;;;;3.13;1.20;;;30.80;1.00;;;;;;5092295;28;20441;-78
2022/05/24 10:11:41;;;;;;;3.20;1.50;;;31.20;1.00;;;;;;5093441;28;20419;-80
2022/05/24 10:14:29;;;;;;;3.07;1.37;;;31.80;1.00;;;;;;5260396;22;20426;-77
2022/05/24 10:17:32;;;;;;;4.47;1.40;;;32.00;1.00;;;;;;5116270;27;20456;-80
2022/05/24 10:20:32;;;;;;;3.00;1.27;;;31.90;1.00;;;;;;5121441;27;20453;-76
2022/05/24 10:23:23;;;;;;;3.40;1.53;;;32.00;1.00;;;;;;5123347;27;20425;-76
2022/05/24 10:26:14;;;;;;;2.80;1.23;;;32.30;1.00;;;;;;5120298;28;20436;-77
2022/05/24 10:29:13;;;;;;;3.20;1.20;;;32.50;1.00;;;;;;5117972;28;20498;-79
2022/05/24 10:31:55;;;;;;;3.13;1.40;;;32.30;1.00;;;;;;5114095;28;20497;-76
2022/05/24 10:40:53;;;;;;;5.67;4.40;;;32.50;1.00;;;;;;5110077;27;20461;-77
2022/05/24 10:43:45;;;;;;;3.47;1.87;;;32.80;1.00;;;;;;5112468;27;20434;-77
2022/05/24 10:46:24;;;;;;;3.93;1.57;;;32.30;1.00;;;;;;5105791;27;20445;-79
2022/05/24 10:49:03;;;;;;;3.50;1.70;;;32.80;1.00;;;;;;5106944;27;20482;-78
2022/05/24 10:51:39;;;;;;;3.30;1.50;;;33.10;1.00;;;;;;5107955;27;20442;-76
2022/05/24 10:54:34;;;;;;;2.70;1.20;;;33.90;1.00;;;;;;5110211;27;20426;-74
2022/05/24 10:57:18;;;;;;;3.00;1.57;;;33.90;1.00;;;;;;5095175;28;20406;-76
2022/05/24 11:00:05;;;;;;;2.93;1.67;;;34.20;1.00;;;;;;5086812;28;20638;-76
2022/05/24 11:02:48;;;;;;;3.17;1.50;;;35.00;1.00;;;;;;5110804;27;20414;-76
2022/05/24 11:05:34;;;;;;;4.63;1.87;;;36.10;1.00;;;;;;5111389;27;20550;-76
2022/05/24 11:08:32;;;;;;;2.67;1.33;;;36.50;1.00;;;;;;5110985;27;20426;-77
2022/05/24 11:11:12;;;;;;;5.30;2.40;;;36.90;1.00;;;;;;5113730;27;20458;-77
2022/05/24 11:13:50;;;;;;;4.23;1.50;;;37.30;1.00;;;;;;5081742;28;20485;-77
2022/05/24 11:16:33;;;;;;;4.57;1.43;;;37.50;1.00;;;;;;5100798;27;20414;-77
2022/05/24 11:19:03;;;;;;;4.83;1.77;;;36.20;1.00;;;;;;5108768;28;20451;-76
2022/05/24 11:21:43;;;;;;;4.20;1.47;;;34.10;1.00;;;;;;5108723;27;20434;-76
2022/05/24 11:24:22;;;;;;;4.53;1.80;;;33.50;1.00;;;;;;5106465;27;20513;-76
2022/05/24 11:26:56;;;;;;;6.13;1.47;;;32.50;1.00;;;;;;5114235;27;20406;-75
2022/05/24 11:29:41;;;;;;;5.07;2.30;;;31.20;1.00;;;;;;5113741;27;20550;-74
2022/05/24 11:32:21;;;;;;;4.87;2.03;;;30.20;1.00;;;;;;5111308;27;20445;-75
2022/05/24 11:35:04;;;;;;;4.30;1.87;;;29.20;1.00;;;;;;5107639;27;20439;-76
2022/05/24 11:37:42;;;;;;;5.00;1.67;;;28.50;1.00;;;;;;5114526;27;20498;-76
2022/05/24 11:43:52;;;;;;;4.10;1.90;;;27.60;1.00;;;;;;5169763;27;20506;-78
2022/05/24 11:46:55;;;;;;;6.03;1.87;;;26.20;1.00;;;;;;5171345;27;20417;-75
2022/05/24 11:50:05;;;;;;;4.70;1.83;;;25.80;1.00;;;;;;5165657;27;20530;-74
2022/05/24 11:53:12;;;;;;;4.17;2.23;;;25.60;1.00;;;;;;5174755;27;20493;-75
2022/05/24 11:56:24;;;;;;;3.77;1.60;;;25.30;1.00;;;;;;5089433;27;20595;-76
2022/05/24 11:59:03;;;;;;;4.90;2.10;;;25.00;1.00;;;;;;5169441;27;20480;-75
2022/05/24 12:01:54;;;;;;;7.17;3.03;;;24.90;1.00;;;;;;5175355;27;20423;-75
2022/05/24 12:10:49;;;;;;;3.50;2.07;;;25.00;1.00;;;;;;5167084;27;20420;-75
2022/05/24 12:13:33;;;;;;;3.00;1.37;;;25.50;1.00;;;;;;5162942;27;20550;-77
2022/05/24 12:27:11;;;;;;;3.30;1.70;;;26.90;1.00;;;;;;5174846;27;20446;-77
2022/05/24 12:29:57;;;;;;;4.00;2.40;;;26.10;1.00;;;;;;5155213;27;20419;-76
2022/05/24 12:32:46;;;;;;;4.90;1.97;;;25.60;1.00;;;;;;5168578;27;20427;-77
2022/05/24 12:35:22;;;;;;;3.60;2.20;;;24.90;1.00;;;;;;5155662;27;20419;-77
2022/05/24 12:38:04;;;;;;;4.33;2.37;;;24.60;1.00;;;;;;5150902;27;20469;-76
2022/05/24 12:43:26;;;;;;;3.70;2.20;;;24.10;1.00;;;;;;5153120;27;20569;-78
2022/05/24 12:46:02;;;;;;;4.93;2.90;;;23.90;1.00;;;;;;5163852;27;22731;-79
2022/05/24 12:48:43;;;;;;;4.23;2.17;;;23.70;1.00;;;;;;5145574;27;20462;-77
2022/05/24 12:51:12;;;;;;;3.63;2.20;;;23.60;1.00;;;;;;5176707;27;20425;-74
2022/05/24 12:53:42;;;;;;;5.50;2.20;;;23.50;1.00;;;;;;5157126;27;20536;-78
2022/05/24 12:56:23;;;;;;;4.83;2.03;;;23.40;1.00;;;;;;5151251;27;20885;-73
2022/05/24 12:58:54;;;;;;;3.70;2.87;;;24.00;1.00;;;;;;5136001;27;20462;-78
2022/05/24 13:01:49;;;;;;;5.03;2.63;;;25.90;1.00;;;;;;5143211;27;20447;-76
2022/05/24 13:04:24;;;;;;;6.30;3.50;;;27.70;1.00;;;;;;5138108;27;21009;-75
2022/05/24 13:06:51;;;;;;;5.73;2.07;;;30.30;1.00;;;;;;5122091;27;20506;-79
2022/05/24 13:09:25;;;;;;;4.30;2.00;;;33.00;1.00;;;;;;5124743;27;20485;-77
2022/05/24 13:11:54;;;;;;;8.57;2.60;;;34.80;1.00;;;;;;5157749;27;20408;-75
2022/05/24 13:14:45;;;;;;;4.20;1.97;;;36.30;1.00;;;;;;5154624;27;20416;-74
2022/05/24 13:17:22;;;;;;;4.70;2.03;;;36.40;1.00;;;;;;5146657;27;20456;-76
2022/05/24 13:20:01;;;;;;;9.07;6.37;;;34.30;1.00;;;;;;5155510;27;20556;-75
2022/05/24 13:22:45;;;;;;;6.13;2.33;;;32.10;1.00;;;;;;5154889;27;20685;-75
2022/05/24 13:25:24;;;;;;;5.33;2.43;;;30.40;1.00;;;;;;5135742;27;20452;-76
2022/05/24 13:27:56;;;;;;;4.60;2.80;;;28.90;1.00;;;;;;5150276;27;20424;-76
2022/05/24 13:33:54;;;;;;;4.77;2.13;;;27.00;1.00;;;;;;5160210;27;20416;-76
2022/05/24 13:36:34;;;;;;;5.03;3.33;;;26.10;1.00;;;;;;5144636;27;20432;-74
2022/05/24 13:39:25;;;;;;;4.23;2.80;;;25.60;1.00;;;;;;5156931;27;20478;-76
2022/05/24 13:42:05;;;;;;;4.97;2.67;;;25.30;1.00;;;;;;5149047;27;20458;-75
2022/05/24 13:44:39;;;;;;;6.13;2.40;;;25.00;1.00;;;;;;5146024;27;20471;-77
2022/05/24 13:47:25;;;;;;;5.57;2.97;;;24.80;1.00;;;;;;5155504;27;20474;-76
2022/05/24 13:49:59;;;;;;;4.37;2.20;;;24.60;1.00;;;;;;5158233;27;20768;-77
2022/05/24 13:52:54;;;;;;;4.00;2.23;;;24.30;1.00;;;;;;5141700;27;20419;-78
2022/05/24 13:55:38;;;;;;;6.53;2.50;;;24.00;1.00;;;;;;5159189;27;20431;-77
2022/05/24 13:58:12;;;;;;;3.83;2.13;;;23.60;1.00;;;;;;5151937;27;20524;-78
2022/05/24 14:00:45;;;;;;;7.20;2.60;;;23.50;1.00;;;;;;5128334;27;20468;-78
2022/05/24 14:03:31;;;;;;;4.33;2.60;;;23.60;1.00;;;;;;5133397;27;20406;-78
2022/05/24 14:06:14;;;;;;;3.70;2.40;;;23.60;1.00;;;;;;5133065;27;20453;-76
2022/05/24 14:08:45;;;;;;;4.97;3.50;;;23.50;1.00;;;;;;5130687;27;20458;-74
2022/05/24 14:11:15;;;;;;;3.73;2.10;;;23.50;1.00;;;;;;5141206;27;20479;-77
2022/05/24 14:13:43;;;;;;;5.30;2.67;;;23.40;1.00;;;;;;5134367;27;20497;-75
2022/05/24 14:16:12;;;;;;;4.43;2.57;;;23.20;1.00;;;;;;5136357;27;20545;-78
2022/05/24 14:18:42;;;;;;;5.20;3.10;;;22.90;1.00;;;;;;5136440;27;20561;-79
2022/05/24 14:21:33;;;;;;;6.03;3.50;;;22.70;1.00;;;;;;5139330;27;20425;-77
2022/05/24 14:24:02;;;;;;;4.63;3.60;;;22.20;1.00;;;;;;5134694;27;20457;-78
2022/05/24 14:26:31;;;;;;;4.20;3.73;;;21.50;1.00;;;;;;5133879;27;20512;-78
2022/05/24 14:29:01;;;;;;;4.80;3.20;;;21.00;1.00;;;;;;5134654;27;20437;-77
2022/05/24 14:31:31;;;;;;;4.60;2.60;;;20.60;1.00;;;;;;5134578;27;20664;-77
2022/05/24 14:34:03;;;;;;;4.03;2.93;;;20.30;1.00;;;;;;5134283;27;20499;-78
2022/05/24 14:36:34;;;;;;;3.70;2.90;;;20.10;1.00;;;;;;5135419;27;20443;-75